Riding Mill, United Kingdom
Current Conditions -  °F | °C
As of 6:50 PM on Tuesday 21 Oct 2014 (Local Time) from EGNT Reporting Station
Few Clouds Few Clouds  
Wind Chill:   Ceiling: Unl
Heat Index:   Visibility: 6mi
Dew Point:   Wind: 20mph
Humidity: 61%   Direction: 290°WNW
Pressure: 29.77"   Gusts: 32mph
Location:  54.96°N, 1.99°W
Report Text: EGNT 211750Z 29017G28KT 9999 FEW035 07/M00 Q1008
Loading
Personal Weather Stations






























Interactive Weather Map
Tropical Storm Tracking
New forecast layout! Learn more

10-Day Weather Forecast

Advertisements
Track Severe Weather on mobile